sensor_id;sensor_type;location;lat;lon;timestamp;P1;durP1;ratioP1;P2;durP2;ratioP2
46651;SDS011;32377;52.182;5.398;2022-09-20T00:02:16;12.23;;;2.67;;
46651;SDS011;32377;52.182;5.398;2022-09-20T00:04:41;7.28;;;2.50;;
46651;SDS011;32377;52.182;5.398;2022-09-20T00:07:07;8.85;;;2.40;;
46651;SDS011;32377;52.182;5.398;2022-09-20T00:09:33;10.85;;;2.72;;
46651;SDS011;32377;52.182;5.398;2022-09-20T00:11:58;10.95;;;2.50;;
46651;SDS011;32377;52.182;5.398;2022-09-20T00:14:24;12.55;;;2.60;;
46651;SDS011;32377;52.182;5.398;2022-09-20T00:16:49;13.82;;;2.65;;
46651;SDS011;32377;52.182;5.398;2022-09-20T00:19:18;13.57;;;1.95;;
46651;SDS011;32377;52.182;5.398;2022-09-20T00:21:45;10.25;;;2.40;;
46651;SDS011;32377;52.182;5.398;2022-09-20T00:24:11;11.73;;;2.85;;
46651;SDS011;32377;52.182;5.398;2022-09-20T00:26:37;11.80;;;2.17;;
46651;SDS011;32377;52.182;5.398;2022-09-20T00:29:03;14.43;;;2.63;;
46651;SDS011;32377;52.182;5.398;2022-09-20T00:31:29;11.13;;;2.58;;
46651;SDS011;32377;52.182;5.398;2022-09-20T00:33:55;13.00;;;2.60;;
46651;SDS011;32377;52.182;5.398;2022-09-20T00:36:41;14.45;;;3.03;;
46651;SDS011;32377;52.182;5.398;2022-09-20T00:39:08;7.40;;;2.00;;
46651;SDS011;32377;52.182;5.398;2022-09-20T00:41:36;14.60;;;2.08;;
46651;SDS011;32377;52.182;5.398;2022-09-20T00:44:35;9.25;;;2.53;;
46651;SDS011;32377;52.182;5.398;2022-09-20T00:47:10;11.70;;;2.30;;
46651;SDS011;32377;52.182;5.398;2022-09-20T00:53:13;10.85;;;2.25;;
46651;SDS011;32377;52.182;5.398;2022-09-20T00:56:07;7.50;;;2.03;;
46651;SDS011;32377;52.182;5.398;2022-09-20T00:58:35;10.10;;;2.42;;
46651;SDS011;32377;52.182;5.398;2022-09-20T01:01:05;12.73;;;2.30;;
46651;SDS011;32377;52.182;5.398;2022-09-20T01:03:30;11.70;;;2.75;;
46651;SDS011;32377;52.182;5.398;2022-09-20T01:06:00;10.63;;;2.20;;
46651;SDS011;32377;52.182;5.398;2022-09-20T01:08:30;13.10;;;2.75;;
46651;SDS011;32377;52.182;5.398;2022-09-20T01:10:56;11.57;;;2.40;;
46651;SDS011;32377;52.182;5.398;2022-09-20T01:13:22;14.85;;;2.60;;
46651;SDS011;32377;52.182;5.398;2022-09-20T01:15:48;13.40;;;2.30;;
46651;SDS011;32377;52.182;5.398;2022-09-20T01:18:14;9.48;;;2.60;;
46651;SDS011;32377;52.182;5.398;2022-09-20T01:20:42;9.18;;;2.38;;
46651;SDS011;32377;52.182;5.398;2022-09-20T01:28:36;7.50;;;1.77;;
46651;SDS011;32377;52.182;5.398;2022-09-20T01:31:07;10.15;;;2.03;;
46651;SDS011;32377;52.182;5.398;2022-09-20T01:33:58;4.65;;;1.88;;
46651;SDS011;32377;52.182;5.398;2022-09-20T01:36:57;9.88;;;1.85;;
46651;SDS011;32377;52.182;5.398;2022-09-20T01:39:35;9.80;;;2.20;;
46651;SDS011;32377;52.182;5.398;2022-09-20T01:42:12;12.27;;;2.50;;
46651;SDS011;32377;52.182;5.398;2022-09-20T01:50:14;13.20;;;2.30;;
46651;SDS011;32377;52.182;5.398;2022-09-20T01:57:58;11.30;;;2.20;;
46651;SDS011;32377;52.182;5.398;2022-09-20T02:03:32;12.07;;;2.22;;
46651;SDS011;32377;52.182;5.398;2022-09-20T02:11:40;9.57;;;1.80;;
46651;SDS011;32377;52.182;5.398;2022-09-20T02:17:09;9.30;;;2.00;;
46651;SDS011;32377;52.182;5.398;2022-09-20T02:19:48;6.70;;;2.45;;
46651;SDS011;32377;52.182;5.398;2022-09-20T02:37:26;11.75;;;2.47;;
46651;SDS011;32377;52.182;5.398;2022-09-20T02:42:45;6.53;;;2.70;;
46651;SDS011;32377;52.182;5.398;2022-09-20T02:45:40;13.07;;;2.00;;
46651;SDS011;32377;52.182;5.398;2022-09-20T02:48:15;14.15;;;2.67;;
46651;SDS011;32377;52.182;5.398;2022-09-20T02:50:53;12.50;;;2.83;;
46651;SDS011;32377;52.182;5.398;2022-09-20T02:56:18;9.32;;;2.20;;
46651;SDS011;32377;52.182;5.398;2022-09-20T03:02:15;7.95;;;2.05;;
46651;SDS011;32377;52.182;5.398;2022-09-20T03:05:05;8.45;;;2.30;;
46651;SDS011;32377;52.182;5.398;2022-09-20T03:07:44;8.87;;;2.83;;
46651;SDS011;32377;52.182;5.398;2022-09-20T03:10:34;10.80;;;2.35;;
46651;SDS011;32377;52.182;5.398;2022-09-20T03:18:35;8.95;;;2.45;;
46651;SDS011;32377;52.182;5.398;2022-09-20T03:29:51;11.30;;;3.15;;
46651;SDS011;32377;52.182;5.398;2022-09-20T03:32:54;9.05;;;3.55;;
46651;SDS011;32377;52.182;5.398;2022-09-20T03:44:23;19.75;;;4.43;;
46651;SDS011;32377;52.182;5.398;2022-09-20T03:46:56;14.40;;;3.65;;
46651;SDS011;32377;52.182;5.398;2022-09-20T03:49:42;10.10;;;3.20;;
46651;SDS011;32377;52.182;5.398;2022-09-20T03:54:45;9.90;;;3.38;;
46651;SDS011;32377;52.182;5.398;2022-09-20T04:03:01;13.32;;;3.88;;
46651;SDS011;32377;52.182;5.398;2022-09-20T04:09:00;11.63;;;3.63;;
46651;SDS011;32377;52.182;5.398;2022-09-20T04:22:50;10.13;;;3.33;;
46651;SDS011;32377;52.182;5.398;2022-09-20T04:25:38;13.52;;;4.13;;
46651;SDS011;32377;52.182;5.398;2022-09-20T04:28:10;11.73;;;2.75;;
46651;SDS011;32377;52.182;5.398;2022-09-20T04:30:41;10.25;;;3.67;;
46651;SDS011;32377;52.182;5.398;2022-09-20T04:33:24;16.08;;;3.72;;
46651;SDS011;32377;52.182;5.398;2022-09-20T04:36:08;8.07;;;3.92;;
46651;SDS011;32377;52.182;5.398;2022-09-20T04:47:48;14.45;;;4.10;;
46651;SDS011;32377;52.182;5.398;2022-09-20T04:53:28;9.95;;;4.00;;
46651;SDS011;32377;52.182;5.398;2022-09-20T04:56:20;12.60;;;4.32;;
46651;SDS011;32377;52.182;5.398;2022-09-20T04:59:06;12.73;;;3.58;;
46651;SDS011;32377;52.182;5.398;2022-09-20T05:12:42;17.05;;;4.50;;
46651;SDS011;32377;52.182;5.398;2022-09-20T05:18:45;15.13;;;4.15;;
46651;SDS011;32377;52.182;5.398;2022-09-20T05:24:16;14.73;;;4.90;;
46651;SDS011;32377;52.182;5.398;2022-09-20T05:30:00;15.23;;;5.35;;
46651;SDS011;32377;52.182;5.398;2022-09-20T05:35:35;14.55;;;4.93;;
46651;SDS011;32377;52.182;5.398;2022-09-20T05:43:35;16.20;;;4.57;;
46651;SDS011;32377;52.182;5.398;2022-09-20T05:48:54;9.13;;;4.60;;
46651;SDS011;32377;52.182;5.398;2022-09-20T05:57:20;15.80;;;4.68;;
46651;SDS011;32377;52.182;5.398;2022-09-20T06:00:16;10.68;;;4.20;;
46651;SDS011;32377;52.182;5.398;2022-09-20T06:02:55;12.48;;;4.78;;
46651;SDS011;32377;52.182;5.398;2022-09-20T06:11:39;19.98;;;5.38;;
46651;SDS011;32377;52.182;5.398;2022-09-20T06:14:32;16.30;;;5.38;;
46651;SDS011;32377;52.182;5.398;2022-09-20T06:27:36;11.73;;;4.65;;
46651;SDS011;32377;52.182;5.398;2022-09-20T06:30:21;11.90;;;4.28;;
46651;SDS011;32377;52.182;5.398;2022-09-20T06:35:23;10.82;;;4.22;;
46651;SDS011;32377;52.182;5.398;2022-09-20T06:37:56;13.07;;;4.82;;
46651;SDS011;32377;52.182;5.398;2022-09-20T06:40:50;10.60;;;4.18;;
46651;SDS011;32377;52.182;5.398;2022-09-20T06:43:35;8.05;;;3.83;;
46651;SDS011;32377;52.182;5.398;2022-09-20T06:46:01;11.38;;;4.28;;
46651;SDS011;32377;52.182;5.398;2022-09-20T06:48:26;12.40;;;4.18;;
46651;SDS011;32377;52.182;5.398;2022-09-20T06:50:55;10.10;;;4.03;;
46651;SDS011;32377;52.182;5.398;2022-09-20T06:53:29;11.88;;;3.33;;
46651;SDS011;32377;52.182;5.398;2022-09-20T06:55:57;9.60;;;3.75;;
46651;SDS011;32377;52.182;5.398;2022-09-20T06:58:23;9.52;;;3.67;;
46651;SDS011;32377;52.182;5.398;2022-09-20T07:00:50;9.07;;;3.88;;
46651;SDS011;32377;52.182;5.398;2022-09-20T07:03:17;13.85;;;3.83;;
46651;SDS011;32377;52.182;5.398;2022-09-20T07:05:44;9.55;;;3.50;;
46651;SDS011;32377;52.182;5.398;2022-09-20T07:08:10;8.25;;;3.33;;
46651;SDS011;32377;52.182;5.398;2022-09-20T07:10:36;15.60;;;4.00;;
46651;SDS011;32377;52.182;5.398;2022-09-20T07:13:02;7.18;;;3.20;;
46651;SDS011;32377;52.182;5.398;2022-09-20T07:15:30;12.43;;;4.07;;
46651;SDS011;32377;52.182;5.398;2022-09-20T07:17:56;16.75;;;4.00;;
46651;SDS011;32377;52.182;5.398;2022-09-20T07:20:23;14.20;;;4.13;;
46651;SDS011;32377;52.182;5.398;2022-09-20T07:22:49;13.07;;;3.95;;
46651;SDS011;32377;52.182;5.398;2022-09-20T07:25:16;13.15;;;3.67;;
46651;SDS011;32377;52.182;5.398;2022-09-20T07:27:42;8.23;;;3.35;;
46651;SDS011;32377;52.182;5.398;2022-09-20T07:30:10;15.85;;;4.78;;
46651;SDS011;32377;52.182;5.398;2022-09-20T07:32:37;13.90;;;3.78;;
46651;SDS011;32377;52.182;5.398;2022-09-20T07:35:05;11.68;;;3.92;;
46651;SDS011;32377;52.182;5.398;2022-09-20T07:37:34;10.73;;;3.90;;
46651;SDS011;32377;52.182;5.398;2022-09-20T07:40:01;13.77;;;4.53;;
46651;SDS011;32377;52.182;5.398;2022-09-20T07:42:29;14.43;;;3.80;;
46651;SDS011;32377;52.182;5.398;2022-09-20T07:44:54;11.90;;;3.83;;
46651;SDS011;32377;52.182;5.398;2022-09-20T07:47:20;14.40;;;3.78;;
46651;SDS011;32377;52.182;5.398;2022-09-20T07:49:49;21.50;;;4.00;;
46651;SDS011;32377;52.182;5.398;2022-09-20T07:52:15;9.90;;;3.60;;
46651;SDS011;32377;52.182;5.398;2022-09-20T07:54:41;10.30;;;3.67;;
46651;SDS011;32377;52.182;5.398;2022-09-20T07:57:07;9.60;;;3.17;;
46651;SDS011;32377;52.182;5.398;2022-09-20T07:59:32;10.55;;;2.88;;
46651;SDS011;32377;52.182;5.398;2022-09-20T08:01:58;10.52;;;3.00;;
46651;SDS011;32377;52.182;5.398;2022-09-20T08:04:24;15.20;;;2.90;;
46651;SDS011;32377;52.182;5.398;2022-09-20T08:06:50;7.75;;;2.25;;
46651;SDS011;32377;52.182;5.398;2022-09-20T08:09:16;6.03;;;1.80;;
46651;SDS011;32377;52.182;5.398;2022-09-20T08:11:43;10.77;;;2.58;;
46651;SDS011;32377;52.182;5.398;2022-09-20T08:14:13;10.27;;;2.13;;
46651;SDS011;32377;52.182;5.398;2022-09-20T08:16:41;4.97;;;2.15;;
46651;SDS011;32377;52.182;5.398;2022-09-20T08:19:08;9.25;;;2.10;;
46651;SDS011;32377;52.182;5.398;2022-09-20T08:21:37;9.07;;;2.25;;
46651;SDS011;32377;52.182;5.398;2022-09-20T08:24:03;12.95;;;3.40;;
46651;SDS011;32377;52.182;5.398;2022-09-20T08:26:29;11.25;;;2.47;;
46651;SDS011;32377;52.182;5.398;2022-09-20T08:28:56;12.50;;;2.47;;
46651;SDS011;32377;52.182;5.398;2022-09-20T08:31:24;9.15;;;2.45;;
46651;SDS011;32377;52.182;5.398;2022-09-20T08:33:51;8.35;;;2.20;;
46651;SDS011;32377;52.182;5.398;2022-09-20T08:36:19;13.07;;;2.38;;
46651;SDS011;32377;52.182;5.398;2022-09-20T08:38:46;11.07;;;2.20;;
46651;SDS011;32377;52.182;5.398;2022-09-20T08:41:20;17.20;;;2.58;;
46651;SDS011;32377;52.182;5.398;2022-09-20T08:43:50;13.25;;;3.08;;
46651;SDS011;32377;52.182;5.398;2022-09-20T08:46:18;9.32;;;2.30;;
46651;SDS011;32377;52.182;5.398;2022-09-20T08:48:48;6.32;;;1.85;;
46651;SDS011;32377;52.182;5.398;2022-09-20T08:51:16;6.50;;;2.03;;
46651;SDS011;32377;52.182;5.398;2022-09-20T08:53:44;7.60;;;2.00;;
46651;SDS011;32377;52.182;5.398;2022-09-20T08:56:12;7.80;;;2.20;;
46651;SDS011;32377;52.182;5.398;2022-09-20T08:58:38;5.22;;;1.55;;
46651;SDS011;32377;52.182;5.398;2022-09-20T09:01:04;8.45;;;1.83;;
46651;SDS011;32377;52.182;5.398;2022-09-20T09:03:31;5.45;;;1.70;;
46651;SDS011;32377;52.182;5.398;2022-09-20T09:05:58;6.35;;;1.35;;
46651;SDS011;32377;52.182;5.398;2022-09-20T09:08:28;5.60;;;1.58;;
46651;SDS011;32377;52.182;5.398;2022-09-20T09:11:01;5.28;;;1.35;;
46651;SDS011;32377;52.182;5.398;2022-09-20T09:16:26;6.18;;;1.23;;
46651;SDS011;32377;52.182;5.398;2022-09-20T09:18:53;8.70;;;2.05;;
46651;SDS011;32377;52.182;5.398;2022-09-20T09:21:23;5.85;;;0.80;;
46651;SDS011;32377;52.182;5.398;2022-09-20T09:23:55;7.93;;;1.20;;
46651;SDS011;32377;52.182;5.398;2022-09-20T09:26:34;7.63;;;1.20;;
46651;SDS011;32377;52.182;5.398;2022-09-20T09:29:15;6.97;;;1.10;;
46651;SDS011;32377;52.182;5.398;2022-09-20T09:31:43;5.55;;;1.30;;
46651;SDS011;32377;52.182;5.398;2022-09-20T09:34:23;7.32;;;1.00;;
46651;SDS011;32377;52.182;5.398;2022-09-20T09:36:51;6.22;;;0.90;;
46651;SDS011;32377;52.182;5.398;2022-09-20T09:39:27;3.85;;;1.33;;
46651;SDS011;32377;52.182;5.398;2022-09-20T09:41:54;7.18;;;1.10;;
46651;SDS011;32377;52.182;5.398;2022-09-20T09:44:25;5.22;;;0.90;;
46651;SDS011;32377;52.182;5.398;2022-09-20T09:46:53;5.18;;;1.13;;
46651;SDS011;32377;52.182;5.398;2022-09-20T09:52:11;7.30;;;1.20;;
46651;SDS011;32377;52.182;5.398;2022-09-20T09:54:45;6.03;;;1.10;;
46651;SDS011;32377;52.182;5.398;2022-09-20T10:00:16;4.43;;;1.38;;
46651;SDS011;32377;52.182;5.398;2022-09-20T10:05:23;4.15;;;1.00;;
46651;SDS011;32377;52.182;5.398;2022-09-20T10:27:35;6.50;;;0.95;;
46651;SDS011;32377;52.182;5.398;2022-09-20T10:30:21;7.60;;;1.63;;
46651;SDS011;32377;52.182;5.398;2022-09-20T10:32:57;5.47;;;0.82;;
46651;SDS011;32377;52.182;5.398;2022-09-20T10:35:43;6.20;;;1.52;;
46651;SDS011;32377;52.182;5.398;2022-09-20T10:44:33;7.53;;;1.25;;
46651;SDS011;32377;52.182;5.398;2022-09-20T11:00:41;3.55;;;0.60;;
46651;SDS011;32377;52.182;5.398;2022-09-20T11:06:15;5.25;;;0.90;;
46651;SDS011;32377;52.182;5.398;2022-09-20T11:09:07;9.25;;;1.15;;
46651;SDS011;32377;52.182;5.398;2022-09-20T11:11:41;5.20;;;0.90;;
46651;SDS011;32377;52.182;5.398;2022-09-20T11:14:11;4.50;;;1.08;;
46651;SDS011;32377;52.182;5.398;2022-09-20T11:16:45;3.42;;;0.90;;
46651;SDS011;32377;52.182;5.398;2022-09-20T11:19:22;8.57;;;1.30;;
46651;SDS011;32377;52.182;5.398;2022-09-20T11:22:30;9.77;;;1.20;;
46651;SDS011;32377;52.182;5.398;2022-09-20T11:27:57;9.10;;;0.90;;
46651;SDS011;32377;52.182;5.398;2022-09-20T11:30:32;5.90;;;1.13;;
46651;SDS011;32377;52.182;5.398;2022-09-20T11:33:15;3.25;;;0.63;;
46651;SDS011;32377;52.182;5.398;2022-09-20T11:35:47;5.80;;;1.02;;
46651;SDS011;32377;52.182;5.398;2022-09-20T11:38:39;10.35;;;0.88;;
46651;SDS011;32377;52.182;5.398;2022-09-20T11:41:11;7.10;;;1.02;;
46651;SDS011;32377;52.182;5.398;2022-09-20T11:43:43;7.03;;;1.20;;
46651;SDS011;32377;52.182;5.398;2022-09-20T11:46:11;8.25;;;1.00;;
46651;SDS011;32377;52.182;5.398;2022-09-20T11:48:46;4.88;;;1.00;;
46651;SDS011;32377;52.182;5.398;2022-09-20T11:56:49;7.20;;;1.10;;
46651;SDS011;32377;52.182;5.398;2022-09-20T11:59:35;3.03;;;0.80;;
46651;SDS011;32377;52.182;5.398;2022-09-20T12:02:17;9.55;;;1.17;;
46651;SDS011;32377;52.182;5.398;2022-09-20T12:04:52;9.23;;;1.40;;
46651;SDS011;32377;52.182;5.398;2022-09-20T12:07:23;4.22;;;0.93;;
46651;SDS011;32377;52.182;5.398;2022-09-20T12:10:03;4.88;;;1.10;;
46651;SDS011;32377;52.182;5.398;2022-09-20T12:12:39;6.25;;;0.88;;
46651;SDS011;32377;52.182;5.398;2022-09-20T12:15:22;5.38;;;1.05;;
46651;SDS011;32377;52.182;5.398;2022-09-20T12:31:47;6.32;;;1.30;;
46651;SDS011;32377;52.182;5.398;2022-09-20T12:39:16;6.30;;;1.10;;
46651;SDS011;32377;52.182;5.398;2022-09-20T12:46:56;5.88;;;1.38;;
46651;SDS011;32377;52.182;5.398;2022-09-20T12:57:56;11.70;;;1.20;;
46651;SDS011;32377;52.182;5.398;2022-09-20T13:03:59;4.63;;;1.30;;
46651;SDS011;32377;52.182;5.398;2022-09-20T13:14:11;7.97;;;1.60;;
46651;SDS011;32377;52.182;5.398;2022-09-20T13:24:38;5.45;;;1.10;;
46651;SDS011;32377;52.182;5.398;2022-09-20T13:27:08;4.35;;;1.08;;
46651;SDS011;32377;52.182;5.398;2022-09-20T13:29:40;4.20;;;0.90;;
46651;SDS011;32377;52.182;5.398;2022-09-20T13:32:14;7.18;;;1.05;;
46651;SDS011;32377;52.182;5.398;2022-09-20T13:34:43;6.90;;;1.10;;
46651;SDS011;32377;52.182;5.398;2022-09-20T13:37:18;6.93;;;1.48;;
46651;SDS011;32377;52.182;5.398;2022-09-20T13:39:56;6.47;;;1.38;;
46651;SDS011;32377;52.182;5.398;2022-09-20T13:42:23;8.50;;;1.83;;
46651;SDS011;32377;52.182;5.398;2022-09-20T13:44:52;4.25;;;0.98;;
46651;SDS011;32377;52.182;5.398;2022-09-20T13:47:24;6.95;;;1.42;;
46651;SDS011;32377;52.182;5.398;2022-09-20T13:50:01;8.77;;;1.02;;
46651;SDS011;32377;52.182;5.398;2022-09-20T13:52:43;7.18;;;1.55;;
46651;SDS011;32377;52.182;5.398;2022-09-20T13:57:46;10.50;;;1.67;;
46651;SDS011;32377;52.182;5.398;2022-09-20T14:00:12;8.05;;;1.00;;
46651;SDS011;32377;52.182;5.398;2022-09-20T14:02:39;7.30;;;1.85;;
46651;SDS011;32377;52.182;5.398;2022-09-20T14:05:06;10.07;;;1.63;;
46651;SDS011;32377;52.182;5.398;2022-09-20T14:07:39;7.32;;;1.20;;
46651;SDS011;32377;52.182;5.398;2022-09-20T14:10:28;5.30;;;1.33;;
46651;SDS011;32377;52.182;5.398;2022-09-20T14:13:01;4.25;;;1.10;;
46651;SDS011;32377;52.182;5.398;2022-09-20T14:15:35;6.60;;;1.52;;
46651;SDS011;32377;52.182;5.398;2022-09-20T14:18:05;7.38;;;1.17;;
46651;SDS011;32377;52.182;5.398;2022-09-20T14:20:35;5.60;;;1.30;;
46651;SDS011;32377;52.182;5.398;2022-09-20T14:23:01;7.30;;;1.25;;
46651;SDS011;32377;52.182;5.398;2022-09-20T14:25:28;4.32;;;1.33;;
46651;SDS011;32377;52.182;5.398;2022-09-20T14:30:51;8.45;;;1.10;;
46651;SDS011;32377;52.182;5.398;2022-09-20T14:33:30;4.70;;;1.15;;
46651;SDS011;32377;52.182;5.398;2022-09-20T14:35:55;6.03;;;1.02;;
46651;SDS011;32377;52.182;5.398;2022-09-20T14:38:23;6.90;;;1.40;;
46651;SDS011;32377;52.182;5.398;2022-09-20T14:40:50;6.88;;;1.55;;
46651;SDS011;32377;52.182;5.398;2022-09-20T14:43:27;6.95;;;1.65;;
46651;SDS011;32377;52.182;5.398;2022-09-20T14:45:58;6.85;;;1.02;;
46651;SDS011;32377;52.182;5.398;2022-09-20T14:51:09;6.82;;;1.13;;
46651;SDS011;32377;52.182;5.398;2022-09-20T14:53:50;7.22;;;1.00;;
46651;SDS011;32377;52.182;5.398;2022-09-20T14:56:33;6.30;;;0.88;;
46651;SDS011;32377;52.182;5.398;2022-09-20T15:01:31;5.03;;;0.93;;
46651;SDS011;32377;52.182;5.398;2022-09-20T15:03:59;9.63;;;1.45;;
46651;SDS011;32377;52.182;5.398;2022-09-20T15:06:31;4.00;;;0.90;;
46651;SDS011;32377;52.182;5.398;2022-09-20T15:08:59;15.10;;;1.60;;
46651;SDS011;32377;52.182;5.398;2022-09-20T15:11:24;9.10;;;1.40;;
46651;SDS011;32377;52.182;5.398;2022-09-20T15:13:53;7.72;;;1.23;;
46651;SDS011;32377;52.182;5.398;2022-09-20T15:16:18;5.63;;;1.42;;
46651;SDS011;32377;52.182;5.398;2022-09-20T15:18:44;4.90;;;1.23;;
46651;SDS011;32377;52.182;5.398;2022-09-20T15:21:10;8.23;;;1.00;;
46651;SDS011;32377;52.182;5.398;2022-09-20T15:23:36;4.95;;;0.98;;
46651;SDS011;32377;52.182;5.398;2022-09-20T15:26:03;4.82;;;1.40;;
46651;SDS011;32377;52.182;5.398;2022-09-20T15:28:29;4.35;;;0.90;;
46651;SDS011;32377;52.182;5.398;2022-09-20T15:30:57;9.25;;;1.40;;
46651;SDS011;32377;52.182;5.398;2022-09-20T15:33:23;5.63;;;1.05;;
46651;SDS011;32377;52.182;5.398;2022-09-20T15:35:49;9.75;;;0.80;;
46651;SDS011;32377;52.182;5.398;2022-09-20T15:38:15;4.97;;;0.90;;
46651;SDS011;32377;52.182;5.398;2022-09-20T15:40:43;7.50;;;1.08;;
46651;SDS011;32377;52.182;5.398;2022-09-20T15:43:12;6.10;;;1.17;;
46651;SDS011;32377;52.182;5.398;2022-09-20T15:48:15;2.97;;;0.70;;
46651;SDS011;32377;52.182;5.398;2022-09-20T15:50:49;6.10;;;1.10;;
46651;SDS011;32377;52.182;5.398;2022-09-20T15:53:31;4.28;;;1.25;;
46651;SDS011;32377;52.182;5.398;2022-09-20T15:55:59;6.30;;;1.10;;
46651;SDS011;32377;52.182;5.398;2022-09-20T15:58:30;4.05;;;0.80;;
46651;SDS011;32377;52.182;5.398;2022-09-20T16:01:07;5.25;;;1.13;;
46651;SDS011;32377;52.182;5.398;2022-09-20T16:03:33;6.20;;;1.10;;
46651;SDS011;32377;52.182;5.398;2022-09-20T16:06:04;7.68;;;1.33;;
46651;SDS011;32377;52.182;5.398;2022-09-20T16:08:34;8.07;;;1.05;;
46651;SDS011;32377;52.182;5.398;2022-09-20T16:11:02;3.25;;;0.82;;
46651;SDS011;32377;52.182;5.398;2022-09-20T16:13:29;5.68;;;0.80;;
46651;SDS011;32377;52.182;5.398;2022-09-20T16:15:55;5.03;;;1.20;;
46651;SDS011;32377;52.182;5.398;2022-09-20T16:18:22;5.07;;;0.85;;
46651;SDS011;32377;52.182;5.398;2022-09-20T16:21:10;4.18;;;0.98;;
46651;SDS011;32377;52.182;5.398;2022-09-20T16:23:38;6.13;;;1.00;;
46651;SDS011;32377;52.182;5.398;2022-09-20T16:26:04;21.73;;;1.65;;
46651;SDS011;32377;52.182;5.398;2022-09-20T16:28:31;5.57;;;1.40;;
46651;SDS011;32377;52.182;5.398;2022-09-20T16:30:57;5.53;;;1.20;;
46651;SDS011;32377;52.182;5.398;2022-09-20T16:33:23;6.80;;;1.70;;
46651;SDS011;32377;52.182;5.398;2022-09-20T16:35:49;7.43;;;1.20;;
46651;SDS011;32377;52.182;5.398;2022-09-20T16:38:15;4.22;;;0.98;;
46651;SDS011;32377;52.182;5.398;2022-09-20T16:40:41;6.18;;;1.08;;
46651;SDS011;32377;52.182;5.398;2022-09-20T16:43:07;5.38;;;1.00;;
46651;SDS011;32377;52.182;5.398;2022-09-20T16:45:33;4.45;;;1.27;;
46651;SDS011;32377;52.182;5.398;2022-09-20T16:47:59;3.63;;;0.90;;
46651;SDS011;32377;52.182;5.398;2022-09-20T16:50:26;7.22;;;1.58;;
46651;SDS011;32377;52.182;5.398;2022-09-20T16:52:52;11.60;;;1.55;;
46651;SDS011;32377;52.182;5.398;2022-09-20T16:55:18;8.35;;;1.15;;
46651;SDS011;32377;52.182;5.398;2022-09-20T16:57:47;4.38;;;1.00;;
46651;SDS011;32377;52.182;5.398;2022-09-20T17:00:13;6.40;;;1.90;;
46651;SDS011;32377;52.182;5.398;2022-09-20T17:02:40;5.93;;;1.10;;
46651;SDS011;32377;52.182;5.398;2022-09-20T17:05:06;6.50;;;1.50;;
46651;SDS011;32377;52.182;5.398;2022-09-20T17:07:32;3.65;;;1.10;;
46651;SDS011;32377;52.182;5.398;2022-09-20T17:09:58;4.50;;;1.23;;
46651;SDS011;32377;52.182;5.398;2022-09-20T17:12:25;6.38;;;1.10;;
46651;SDS011;32377;52.182;5.398;2022-09-20T17:14:57;10.30;;;1.55;;
46651;SDS011;32377;52.182;5.398;2022-09-20T17:17:23;5.25;;;1.17;;
46651;SDS011;32377;52.182;5.398;2022-09-20T17:19:48;7.97;;;1.25;;
46651;SDS011;32377;52.182;5.398;2022-09-20T17:22:14;6.50;;;1.67;;
46651;SDS011;32377;52.182;5.398;2022-09-20T17:24:40;7.07;;;1.15;;
46651;SDS011;32377;52.182;5.398;2022-09-20T17:27:05;5.82;;;1.00;;
46651;SDS011;32377;52.182;5.398;2022-09-20T17:29:31;8.05;;;1.48;;
46651;SDS011;32377;52.182;5.398;2022-09-20T17:31:56;7.28;;;1.77;;
46651;SDS011;32377;52.182;5.398;2022-09-20T17:34:23;4.22;;;1.33;;
46651;SDS011;32377;52.182;5.398;2022-09-20T17:36:50;6.78;;;1.60;;
46651;SDS011;32377;52.182;5.398;2022-09-20T17:39:18;10.57;;;1.48;;
46651;SDS011;32377;52.182;5.398;2022-09-20T17:41:44;8.25;;;1.65;;
46651;SDS011;32377;52.182;5.398;2022-09-20T17:44:11;5.80;;;1.20;;
46651;SDS011;32377;52.182;5.398;2022-09-20T17:46:38;9.68;;;2.42;;
46651;SDS011;32377;52.182;5.398;2022-09-20T17:49:06;4.20;;;1.58;;
46651;SDS011;32377;52.182;5.398;2022-09-20T17:51:37;5.68;;;1.10;;
46651;SDS011;32377;52.182;5.398;2022-09-20T17:54:04;3.03;;;1.02;;
46651;SDS011;32377;52.182;5.398;2022-09-20T17:56:31;6.50;;;1.10;;
46651;SDS011;32377;52.182;5.398;2022-09-20T17:58:57;4.00;;;1.10;;
46651;SDS011;32377;52.182;5.398;2022-09-20T18:01:24;5.78;;;1.67;;
46651;SDS011;32377;52.182;5.398;2022-09-20T18:03:51;9.27;;;1.83;;
46651;SDS011;32377;52.182;5.398;2022-09-20T18:06:18;2.90;;;1.13;;
46651;SDS011;32377;52.182;5.398;2022-09-20T18:08:50;8.35;;;1.40;;
46651;SDS011;32377;52.182;5.398;2022-09-20T18:11:29;8.43;;;1.70;;
46651;SDS011;32377;52.182;5.398;2022-09-20T18:13:59;5.00;;;1.58;;
46651;SDS011;32377;52.182;5.398;2022-09-20T18:16:26;13.00;;;1.98;;
46651;SDS011;32377;52.182;5.398;2022-09-20T18:18:51;9.25;;;1.85;;
46651;SDS011;32377;52.182;5.398;2022-09-20T18:21:18;4.15;;;1.80;;
46651;SDS011;32377;52.182;5.398;2022-09-20T18:23:45;8.00;;;2.05;;
46651;SDS011;32377;52.182;5.398;2022-09-20T18:26:21;8.10;;;1.75;;
46651;SDS011;32377;52.182;5.398;2022-09-20T18:29:04;7.53;;;2.05;;
46651;SDS011;32377;52.182;5.398;2022-09-20T18:31:35;7.75;;;2.40;;
46651;SDS011;32377;52.182;5.398;2022-09-20T18:34:19;7.22;;;2.47;;
46651;SDS011;32377;52.182;5.398;2022-09-20T18:36:48;8.02;;;2.28;;
46651;SDS011;32377;52.182;5.398;2022-09-20T18:39:26;7.65;;;1.98;;
46651;SDS011;32377;52.182;5.398;2022-09-20T18:41:56;8.98;;;1.88;;
46651;SDS011;32377;52.182;5.398;2022-09-20T18:44:22;11.32;;;3.00;;
46651;SDS011;32377;52.182;5.398;2022-09-20T18:46:48;7.78;;;2.03;;
46651;SDS011;32377;52.182;5.398;2022-09-20T18:49:16;10.05;;;3.38;;
46651;SDS011;32377;52.182;5.398;2022-09-20T18:51:44;5.90;;;2.50;;
46651;SDS011;32377;52.182;5.398;2022-09-20T18:54:11;12.27;;;2.60;;
46651;SDS011;32377;52.182;5.398;2022-09-20T18:56:40;9.93;;;3.40;;
46651;SDS011;32377;52.182;5.398;2022-09-20T18:59:18;12.63;;;3.40;;
46651;SDS011;32377;52.182;5.398;2022-09-20T19:20:11;7.57;;;3.00;;
46651;SDS011;32377;52.182;5.398;2022-09-20T19:25:44;9.13;;;2.47;;
46651;SDS011;32377;52.182;5.398;2022-09-20T19:28:12;9.60;;;2.92;;
46651;SDS011;32377;52.182;5.398;2022-09-20T19:30:39;6.50;;;2.30;;
46651;SDS011;32377;52.182;5.398;2022-09-20T19:33:16;6.78;;;2.50;;
46651;SDS011;32377;52.182;5.398;2022-09-20T19:35:47;6.55;;;2.55;;
46651;SDS011;32377;52.182;5.398;2022-09-20T19:41:38;8.77;;;3.35;;
46651;SDS011;32377;52.182;5.398;2022-09-20T19:49:51;6.53;;;3.65;;
46651;SDS011;32377;52.182;5.398;2022-09-20T19:52:52;11.05;;;3.70;;
46651;SDS011;32377;52.182;5.398;2022-09-20T19:55:19;6.88;;;3.65;;
46651;SDS011;32377;52.182;5.398;2022-09-20T19:57:46;11.13;;;4.10;;
46651;SDS011;32377;52.182;5.398;2022-09-20T20:00:12;8.35;;;3.75;;
46651;SDS011;32377;52.182;5.398;2022-09-20T20:02:40;6.30;;;3.30;;
46651;SDS011;32377;52.182;5.398;2022-09-20T20:05:17;13.98;;;4.40;;
46651;SDS011;32377;52.182;5.398;2022-09-20T20:13:37;7.78;;;3.65;;
46651;SDS011;32377;52.182;5.398;2022-09-20T20:22:27;13.40;;;4.10;;
46651;SDS011;32377;52.182;5.398;2022-09-20T20:28:15;10.05;;;4.55;;
46651;SDS011;32377;52.182;5.398;2022-09-20T20:30:41;6.75;;;3.83;;
46651;SDS011;32377;52.182;5.398;2022-09-20T20:33:11;12.35;;;5.15;;
46651;SDS011;32377;52.182;5.398;2022-09-20T20:35:39;10.00;;;4.70;;
46651;SDS011;32377;52.182;5.398;2022-09-20T20:38:04;9.25;;;4.05;;
46651;SDS011;32377;52.182;5.398;2022-09-20T20:40:36;11.55;;;4.13;;
46651;SDS011;32377;52.182;5.398;2022-09-20T20:43:02;10.18;;;4.60;;
46651;SDS011;32377;52.182;5.398;2022-09-20T20:45:30;14.25;;;5.85;;
46651;SDS011;32377;52.182;5.398;2022-09-20T20:47:56;9.77;;;5.18;;
46651;SDS011;32377;52.182;5.398;2022-09-20T20:50:22;12.20;;;5.80;;
46651;SDS011;32377;52.182;5.398;2022-09-20T20:52:52;11.50;;;5.68;;